Aérodrome :







RETROUVEZ-NOUS SUR...

 
LOGIN :

S'inscrire | Disclaimer

   EN    FR    IT 

 









Légende :    VFR   VFR Marginal   IFR   IFR Intensif   IFR Très Intensif
Visi : 
Plafond : 
>= 8 km
>= 3000ft
5 à 8 km
1000 à 3000 ft
1500m à 5 km
500 à 1000 ft
800 à 1500m
200 à 500 ft
< 800m
< 200 ft
Symboles :   Orages  Brouillard  Fortes neiges  Fortes précipitations  Vent > 20 kt






- Altitude de l'aérodrome : 23 ft
- Code IATA : STT


TIST - King

DERNIER METAR :
  • 062153Z 03008KT 10SM SCT030 28/22 A2997 RMK AO2 SLP149 T02780222

METARs EXPIRÉS :
  • 062053Z 04009KT 10SM SCT024 28/22 A2996 RMK AO2 RAE03 SLP146 P0000 60000 T02830222 55004
  • 061953Z 04008KT 10SM -RA SCT024 28/23 A2996 RMK AO2 RAB53 SLP146 P0000 T02830228

TAF TIST
Valide du 06 à 18h jusqu'au 07 à 18h UTC


061740Z 0618/0718 12010KT P6SM FEW024 SCT035
FM070200 06006KT P6SM FEW024
FM071300 06015KT P6SM FEW024 SCT035



MET'MAP, la Météo Aéronautique d'un coup d'oeil ! - Copyright ORBIFLY Décembre 2007 - Disclaimer

ORBIFLY MET'MAP TEAM :

Programmation & Développement : Alexandra Zaïnal
Sur une idée originale de : Baudouin d'Aumeries
Assistance à la programmation : Marc-Olivier Méhu
Soutien technique & logistique : Manuel Goepfert

Contact : metmap@orbifly.com




SOURCES & CREDITS :

   NOAA